Latest Coastal Weather Observations for Orbost

IDV60701

Issued at 7:22 am EDT Sunday 11 December 2016 (issued every 10 minutes, with the page automatically refreshed every 10 minutes)

About coastal observations | Map of coastal stations | Coastal observations for VIC | Marine services | Other Formats
Station Details ID: 084145 Name: ORBOST Lat: -37.69 Lon: 148.47 Height: 62.65 m
Data from the previous 72 hours. | See also: Recent months at Orbost
Date/Time
EDT
Temp
°C
Wind Pressure Rain since
9am
mm
Weather Cloud Vis
km
Sea
Height
m
Swell
Dir  Spd
kts
Gust
kts
hPa Trend Height
m
Period
s
Dir
11/07:00am 13.5 NW 1 2 1023.8 - - - - - - - - -
11/06:30am 13.2 CALM 0 0 1023.5 - - - - - - - - -
11/06:00am 13.1 NNE 2 2 1023.0 - - - - - - - - -
11/05:30am 13.1 N 2 3 1022.9 - - - - - - - - -
11/05:00am 13.1 N 4 5 1022.6 - - - - - - - - -
11/04:30am 13.2 N 3 4 1022.6 - - - - - - - - -
11/04:00am 13.2 N 3 3 1022.6 - - - - - - - - -
11/03:30am 13.2 NNW 2 2 1022.8 - - - - - - - - -
11/12:30am 13.5 WNW 1 2 1023.3 - - - - - - - - -
11/12:00am 13.6 NW 1 1 1023.3 - - - - - - - - -
 
Date/Time
EDT
Temp
°C
Wind Pressure Rain since
9am
mm
Weather Cloud Vis
km
Sea
Height
m
Swell
Dir  Spd
kts
Gust
kts
hPa Trend Height
m
Period
s
Dir
10/10:30pm 14.0 NNE 2 2 1023.7 - 0.0 - - - - - - -
10/10:00pm 14.0 CALM 0 0 1023.7 - 0.0 - - - - - - -
10/09:30pm 14.1 CALM 0 0 1023.4 - 0.0 - - - - - - -
10/09:00pm 14.1 CALM 0 0 1023.2 - 0.0 - - - - - - -
10/08:30pm 14.2 S 2 4 1022.9 - 0.0 - - - - - - -
10/08:00pm 14.5 SSW 3 5 1022.7 - 0.0 - - - - - - -
10/07:30pm 14.5 SSW 5 7 1022.3 - 0.0 - - - - - - -
10/07:00pm 15.6 SSW 4 8 1021.8 - 0.0 - - - - - - -
10/06:30pm 16.0 S 5 8 1021.5 - 0.0 - - - - - - -
10/06:00pm 16.2 S 6 10 1021.2 - 0.0 - - - - - - -
10/05:30pm 16.1 S 6 11 1021.1 - 0.0 - - - - - - -
10/05:00pm 16.6 S 7 11 1021.2 - 0.0 - - - - - - -
10/04:30pm 17.0 S 6 11 1021.3 - 0.0 - - - - - - -
10/04:00pm 16.5 S 7 11 1021.5 - 0.0 - - - - - - -
10/03:30pm 17.0 S 7 11 1021.5 - 0.0 - - - - - - -
10/03:00pm 16.5 SSE 7 11 1021.7 - 0.0 - - - - - - -
10/02:30pm 17.0 S 8 13 1021.9 - 0.0 - - - - - - -
10/02:00pm 17.1 S 7 11 1021.8 - 0.0 - - - - - - -
10/01:30pm 17.0 SSE 7 13 1022.0 - 0.0 - - - - - - -
10/01:00pm 16.8 SSW 7 12 1022.1 - 0.0 - - - - - - -
10/12:30pm 17.4 S 4 10 1022.3 - 0.0 - - - - - - -
10/12:00pm 16.5 SW 5 10 1022.5 - 0.0 - - - - - - -
10/11:30am 16.1 W 4 11 1022.7 - 0.0 - - - - - - -
10/11:00am 15.9 SW 7 11 1023.1 - 0.0 - - - - - - -
10/10:30am 15.1 W 6 10 1023.2 - 0.0 - - - - - - -
10/10:00am 14.7 W 7 11 1023.4 - 0.0 - - - - - - -
10/09:30am 14.1 W 6 9 1023.5 - 0.0 - - - - - - -
10/09:00am 14.2 W 7 10 1023.5 - 0.0 - - - - - - -
10/08:30am 13.3 WNW 6 10 1023.4 - 0.0 - - - - - - -
10/08:00am 13.0 WNW 6 9 1023.1 - 0.0 - - - - - - -
10/07:30am 12.4 NW 6 8 1022.7 - 0.0 - - - - - - -
10/07:00am 12.1 NW 6 9 1022.3 - 0.0 - - - - - - -
10/06:30am 11.8 NW 4 7 1022.0 - 0.0 - - - - - - -
10/06:00am 11.7 WNW 5 8 1021.7 - 0.0 - - - - - - -
10/05:30am 11.7 NW 5 8 1021.4 - 0.0 - - - - - - -
10/05:00am 11.7 WNW 5 11 1021.0 - 0.0 - - - - - - -
10/04:30am 11.8 WNW 6 10 1020.7 - 0.0 - - - - - - -
10/04:00am 11.7 WNW 4 7 1020.6 - 0.0 - - - - - - -
10/03:30am 11.8 WNW 6 9 1020.5 - 0.0 - - - - - - -
10/03:00am 11.8 WNW 7 11 1020.5 - 0.0 - - - - - - -
10/02:30am 11.8 WNW 5 9 1020.6 - 0.0 - - - - - - -
10/02:00am 11.9 WNW 6 10 1020.7 - 0.0 - - - - - - -
10/01:30am 11.7 WNW 6 10 1020.8 - 0.0 - - - - - - -
10/01:00am 11.9 WNW 5 10 1020.8 - 0.0 - - - - - - -
10/12:30am 12.2 NW 6 11 1021.1 - 0.0 - - - - - - -
10/12:00am 12.3 WNW 5 7 1021.2 - 0.0 - - - - - - -
 
Date/Time
EDT
Temp
°C
Wind Pressure Rain since
9am
mm
Weather Cloud Vis
km
Sea
Height
m
Swell
Dir  Spd
kts
Gust
kts
hPa Trend Height
m
Period
s
Dir
09/11:30pm 12.6 W 6 11 1021.1 - 0.0 - - - - - - -
09/11:00pm 12.6 W 7 10 1020.7 - 0.0 - - - - - - -
09/10:30pm 12.7 W 7 13 1020.4 - 0.0 - - - - - - -
09/10:00pm 12.7 W 7 11 1020.2 - 0.0 - - - - - - -
09/09:30pm 12.9 W 7 10 1019.7 - 0.0 - - - - - - -
09/09:00pm 13.8 W 9 16 1019.2 - 0.0 - - - - - - -
09/08:30pm 13.7 WSW 8 14 1018.9 - 0.0 - - - - - - -
09/08:00pm 14.5 W 10 15 1018.2 - 0.0 - - - - - - -
09/07:30pm 15.2 WSW 10 17 1017.6 - 0.0 - - - - - - -
09/07:00pm 15.4 WSW 9 14 1017.2 - 0.0 - - - - - - -
09/06:30pm 15.7 W 13 22 1016.5 - 0.0 - - - - - - -
09/06:00pm 15.3 SW 11 18 1016.3 - 0.0 - - - - - - -
09/05:30pm 15.8 SW 12 19 1015.9 - 0.0 - - - - - - -
09/05:00pm 15.1 SW 17 23 1015.6 - 0.0 - - - - - - -
09/04:30pm 15.8 SW 13 20 1015.3 - 0.0 - - - - - - -
09/04:00pm 16.1 SW 12 18 1015.1 - 0.0 - - - - - - -
09/03:30pm 16.8 SW 13 18 1014.7 - 0.0 - - - - - - -
09/03:00pm 15.5 SW 12 18 1014.4 - 0.0 - - - - - - -
09/02:30pm 15.7 SW 13 20 1014.3 - 0.0 - - - - - - -
09/02:09pm 15.5 SW 14 25 1014.2 - 0.0 - - - - - - -
09/02:00pm 14.9 WSW 10 17 1013.9 - 0.0 - - - - - - -
09/01:30pm 13.9 WSW 10 19 1014.2 - 0.0 - - - - - - -
09/01:00pm 14.3 WSW 13 21 1013.8 - 0.0 - - - - - - -
09/12:30pm 14.9 W 12 19 1013.5 - 0.0 - - - - - - -
09/12:08pm 13.9 WSW 15 26 1013.4 - 0.0 - - - - - - -
09/12:00pm 14.5 WSW 13 23 1013.3 - 0.0 - - - - - - -
09/11:37am 14.1 W 15 26 1013.1 - 0.0 - - - - - - -
09/11:30am 13.8 W 11 20 1012.9 - 0.0 - - - - - - -
09/11:00am 12.4 W 13 22 1012.9 - 0.0 - - - - - - -
09/10:48am 12.7 W 15 25 1012.6 - 0.0 - - - - - - -
09/10:30am 15.1 W 12 20 1012.1 - 0.0 - - - - - - -
09/10:00am 13.0 W 13 21 1011.8 - 0.0 - - - - - - -
09/09:30am 12.7 W 14 23 1011.4 - 0.0 - - - - - - -
09/09:00am 12.5 W 15 23 1011.1 - - - - - - - - -
09/08:30am 12.5 W 15 23 1010.4 - - - - - - - - -
09/08:00am 12.4 W 13 20 1009.9 - - - - - - - - -
09/07:30am 12.2 W 12 21 1009.4 - - - - - - - - -
09/07:00am 11.2 W 11 20 1008.8 - - - - - - - - -
09/06:30am 11.2 W 11 20 1008.4 - - - - - - - - -
09/06:00am 11.2 W 12 20 1007.8 - - - - - - - - -
09/05:30am 11.9 W 9 14 1007.0 - - - - - - - - -
09/05:00am 12.1 W 12 19 1006.4 - - - - - - - - -
09/04:30am 12.2 W 12 20 1005.8 - - - - - - - - -
09/04:00am 12.1 W 11 16 1005.3 - - - - - - - - -
09/03:30am 12.6 W 10 18 1004.8 - - - - - - - - -
09/03:00am 12.4 W 12 19 1004.4 - - - - - - - - -
09/02:30am 12.3 W 9 15 1004.4 - - - - - - - - -
09/02:00am 12.6 W 11 17 1004.1 - - - - - - - - -
09/01:30am 13.0 W 13 20 1003.8 - - - - - - - - -
09/01:00am 13.4 W 11 20 1003.8 - - - - - - - - -
09/12:30am 13.7 W 11 19 1003.5 - - - - - - - - -
09/12:00am 14.1 W 13 22 1003.3 - - - - - - - - -
 
Date/Time
EDT
Temp
°C
Wind Pressure Rain since
9am
mm
Weather Cloud Vis
km
Sea
Height
m
Swell
Dir  Spd
kts
Gust
kts
hPa Trend Height
m
Period
s
Dir
08/11:30pm 14.5 W 8 19 1002.9 - - - - - - - - -
08/11:00pm 14.8 W 7 10 1002.7 - - - - - - - - -
08/10:30pm 15.0 W 4 8 1002.2 - - - - - - - - -
08/10:00pm 14.6 NW 2 7 1001.5 - - - - - - - - -
08/09:00pm 13.9 NE 3 5 1000.1 - 2.8 - - - - - - -
08/08:30pm 13.9 NE 2 4 999.8 - 2.8 - - - - - - -
08/08:00pm 14.4 N 1 2 999.4 - 2.8 - - - - - - -
08/07:30pm 14.6 N 4 5 999.3 - 2.8 - - - - - - -
08/07:00pm 14.1 NNW 3 5 999.6 - 2.8 - - - - - - -
08/06:30pm 14.0 WNW 3 5 999.2 - 2.2 - - - - - - -
08/06:00pm 14.3 W 3 6 998.3 - 1.6 Rain - - - - - -
08/05:30pm 14.2 SW 6 10 998.4 - 1.4 - - - - - - -
08/05:00pm 14.2 SW 6 10 998.0 - 1.4 - - - - - - -
08/04:30pm 15.1 WSW 13 23 997.6 - 0.0 - - - - - - -
08/04:00pm 18.5 SW 17 25 996.3 - 0.0 - - - - - - -
08/03:50pm 19.3 SW 22 34 996.0 - 0.0 - - - - - - -
08/03:44pm 21.3 WSW 14 34 995.3 - 0.0 - - - - - - -
08/03:30pm 27.6 WNW 9 16 993.9 - 0.0 - - - - - - -
08/03:00pm 27.8 NW 8 12 993.4 - 0.0 - - - - - - -
08/02:30pm 28.7 NNW 10 25 993.0 - 0.0 - - - - - - -
08/02:00pm 28.8 NW 12 20 993.8 - 0.0 - - - - - - -
08/01:30pm 28.5 NNW 8 12 994.8 - 0.0 - - - - - - -
08/01:00pm 29.2 N 7 12 995.2 - 0.0 - - - - - - -
08/12:30pm 26.9 NNE 5 8 995.9 - 0.0 - - - - - - -
08/12:00pm 26.9 NNE 7 11 996.5 - 0.0 - - - - - - -
08/11:30am 26.3 N 14 21 997.2 - 0.0 - - - - - - -
08/11:00am 25.0 N 10 15 997.2 - 0.0 - - - - - - -
08/10:30am 22.5 E 3 6 997.6 - 0.0 - - - - - - -
08/10:00am 22.5 E 4 5 998.5 - 0.0 - - - - - - -
08/09:30am 22.5 NNE 4 7 999.0 - 0.0 - - - - - - -
08/09:00am 22.9 NNE 7 12 999.6 - - - - - - - - -
08/08:30am 22.7 NNE 5 10 1000.1 - - - - - - - - -
08/08:00am 20.6 NNE 4 7 1001.1 - - - - - - - - -
08/07:30am 19.4 NNE 4 8 1000.7 - - - - - - - - -

Other Formats:

Comma delimited format used in spreadsheet applications
http://www.bom.gov.au/fwo/IDV60701/IDV60701.95918.axf

JavaScript Object Notation format (JSON) in row-major order
http://www.bom.gov.au/fwo/IDV60701/IDV60701.95918.json